createdAt,value
2023-04-10T00:00:12.235Z,5.78
2023-04-10T00:04:14.641Z,5.74
2023-04-10T00:08:16.331Z,5.71
2023-04-10T00:12:18.145Z,5.77
2023-04-10T00:16:20.094Z,5.72
2023-04-10T00:20:22.969Z,5.63
2023-04-10T00:24:24.515Z,5.28
2023-04-10T00:28:25.996Z,5.13
2023-04-10T00:32:27.461Z,5.15
2023-04-10T00:36:28.921Z,5.38
2023-04-10T00:40:30.503Z,5.36
2023-04-10T00:44:31.996Z,5.12
2023-04-10T00:48:34.447Z,4.92
2023-04-10T00:52:36.150Z,4.82
2023-04-10T00:56:37.815Z,4.75
2023-04-10T01:00:39.324Z,4.77
2023-04-10T01:04:42.062Z,4.86
2023-04-10T01:09:00.760Z,4.86
2023-04-10T01:13:16.339Z,4.77
2023-04-10T01:17:30.601Z,4.57
2023-04-10T01:21:36.472Z,4.36
2023-04-10T01:25:56.559Z,4.42
2023-04-10T01:30:02.618Z,4.38
2023-04-10T01:34:16.275Z,4.48
2023-04-10T01:38:20.670Z,4.31
2023-04-10T01:42:23.883Z,4.16
2023-04-10T01:46:27.360Z,4.38
2023-04-10T01:50:30.538Z,4.43
2023-04-10T01:54:33.449Z,3.86
2023-04-10T01:58:35.910Z,4.14
2023-04-10T02:02:37.698Z,4.11
2023-04-10T02:06:56.378Z,3.89
2023-04-10T02:11:26.602Z,3.59
2023-04-10T02:15:32.461Z,4.03
2023-04-10T02:19:35.477Z,4.09
2023-04-10T02:23:37.280Z,4.18
2023-04-10T02:27:39.288Z,4.05
2023-04-10T02:31:44.524Z,3.98
2023-04-10T02:35:46.037Z,3.37
2023-04-10T02:39:47.528Z,3.63
2023-04-10T02:43:48.967Z,3.63
2023-04-10T02:47:50.494Z,3.85
2023-04-10T02:51:51.948Z,3.73
2023-04-10T02:55:54.725Z,3.88
2023-04-10T02:59:56.177Z,3.57
2023-04-10T03:03:58.439Z,3.87
2023-04-10T03:08:00.193Z,3.91
2023-04-10T03:12:02.333Z,3.87
2023-04-10T03:16:03.911Z,3.69
2023-04-10T03:20:05.923Z,3.77
2023-04-10T03:24:07.374Z,3.75
2023-04-10T03:28:09.127Z,3.69
2023-04-10T03:32:10.566Z,3.85
2023-04-10T03:36:12.499Z,3.75
2023-04-10T03:40:13.996Z,3.71
2023-04-10T03:44:15.619Z,3.49
2023-04-10T03:48:17.865Z,3.72
2023-04-10T03:52:19.271Z,3.81
2023-04-10T03:56:20.684Z,3.76
2023-04-10T04:00:22.210Z,3.71
2023-04-10T04:04:23.834Z,3.66
2023-04-10T04:08:28.330Z,3.71
2023-04-10T04:12:29.826Z,3.75
2023-04-10T04:16:31.311Z,3.81
2023-04-10T04:20:32.854Z,3.58
2023-04-10T04:24:36.579Z,3.74
2023-04-10T04:28:38.021Z,3.52
2023-04-10T04:32:42.598Z,3.49
2023-04-10T04:36:44.202Z,3.82
2023-04-10T04:40:46.192Z,4.04
2023-04-10T04:44:49.514Z,4.16
2023-04-10T04:48:50.966Z,4.14
2023-04-10T04:52:52.395Z,4.04
2023-04-10T04:56:53.905Z,3.80
2023-04-10T05:00:55.484Z,4.13
2023-04-10T05:04:56.962Z,4.12
2023-04-10T05:08:58.397Z,4.05
2023-04-10T05:12:59.799Z,3.96
2023-04-10T05:17:03.362Z,4.06
2023-04-10T05:21:05.442Z,4.29
2023-04-10T05:25:07.369Z,4.36
2023-04-10T05:29:08.794Z,4.45
2023-04-10T05:33:10.345Z,4.59
2023-04-10T05:37:13.003Z,4.77
2023-04-10T05:41:14.610Z,4.87
2023-04-10T05:45:16.175Z,4.71
2023-04-10T05:49:17.606Z,4.61
2023-04-10T05:53:20.219Z,4.70
2023-04-10T05:57:21.718Z,5.23
2023-04-10T06:01:23.193Z,5.43
2023-04-10T06:05:24.718Z,5.70
2023-04-10T06:09:26.244Z,5.95
2023-04-10T06:13:27.865Z,5.97
2023-04-10T06:17:29.798Z,6.35
2023-04-10T06:21:31.765Z,6.05
2023-04-10T06:25:33.349Z,6.52
2023-04-10T06:29:34.909Z,6.80
2023-04-10T06:33:39.246Z,6.87
2023-04-10T06:37:40.727Z,7.08
2023-04-10T06:41:42.201Z,7.37
2023-04-10T06:45:43.719Z,7.51
2023-04-10T06:49:45.275Z,7.66
2023-04-10T06:53:47.120Z,7.84
2023-04-10T06:57:48.555Z,7.91
2023-04-10T07:01:49.992Z,8.00
2023-04-10T07:05:51.532Z,8.10
2023-04-10T07:09:52.989Z,8.34
2023-04-10T07:13:58.552Z,8.23
2023-04-10T07:18:00.121Z,8.35
2023-04-10T07:22:01.675Z,8.29
2023-04-10T07:26:03.090Z,8.41
2023-04-10T07:30:05.260Z,8.53
2023-04-10T07:34:07.063Z,8.51
2023-04-10T07:38:08.647Z,8.71
2023-04-10T07:42:11.336Z,8.71
2023-04-10T07:46:12.883Z,8.77
2023-04-10T07:50:14.428Z,9.02
2023-04-10T07:54:15.920Z,9.21
2023-04-10T07:58:17.419Z,9.11
2023-04-10T08:02:18.962Z,9.58
2023-04-10T08:06:20.883Z,9.81
2023-04-10T08:10:22.581Z,10.33
2023-04-10T08:14:24.085Z,10.20
2023-04-10T08:18:25.624Z,10.10
2023-04-10T08:22:27.069Z,9.96
2023-04-10T08:26:29.187Z,10.49
2023-04-10T08:30:30.829Z,10.73
2023-04-10T08:34:32.296Z,10.77
2023-04-10T08:38:34.052Z,10.67
2023-04-10T08:42:36.375Z,10.60
2023-04-10T08:46:42.978Z,10.80
2023-04-10T08:50:46.119Z,11.30
2023-04-10T08:54:50.740Z,11.73
2023-04-10T08:58:53.005Z,12.49
2023-04-10T09:02:58.193Z,12.82
2023-04-10T09:07:00.614Z,12.67
2023-04-10T09:11:02.327Z,13.14
2023-04-10T09:15:04.103Z,12.58
2023-04-10T09:19:06.585Z,13.35
2023-04-10T09:23:22.296Z,13.17
2023-04-10T09:27:35.496Z,13.53
2023-04-10T09:31:38.943Z,13.11
2023-04-10T09:35:40.976Z,13.86
2023-04-10T09:39:43.682Z,14.21
2023-04-10T09:43:46.193Z,14.70
2023-04-10T09:48:05.792Z,14.17
2023-04-10T09:52:20.310Z,14.32
2023-04-10T09:56:23.021Z,14.98
2023-04-10T10:00:26.584Z,15.33
2023-04-10T10:04:28.882Z,15.36
2023-04-10T10:08:33.146Z,15.02
2023-04-10T10:12:43.999Z,14.88
2023-04-10T10:16:56.644Z,15.50
2023-04-10T10:20:59.197Z,14.71
2023-04-10T10:25:02.379Z,14.98
2023-04-10T10:29:06.924Z,15.11
2023-04-10T10:33:10.243Z,15.82
2023-04-10T10:37:12.778Z,15.73
2023-04-10T10:41:21.215Z,16.76
2023-04-10T10:45:34.658Z,16.79
2023-04-10T10:49:51.962Z,16.95
2023-04-10T10:53:53.454Z,16.02
2023-04-10T10:57:56.201Z,16.54
2023-04-10T11:02:17.792Z,17.43
2023-04-10T11:06:21.467Z,17.59
2023-04-10T11:11:00.494Z,17.43
2023-04-10T11:15:04.942Z,16.75
2023-04-10T11:19:14.281Z,17.37
2023-04-10T11:23:20.369Z,17.90
2023-04-10T11:27:51.564Z,17.77
2023-04-10T11:32:01.545Z,17.93
2023-04-10T11:36:03.675Z,17.65
2023-04-10T11:40:06.318Z,17.63
2023-04-10T11:44:10.774Z,17.97
2023-04-10T11:48:12.290Z,17.72
2023-04-10T11:52:24.206Z,18.39
2023-04-10T11:56:25.649Z,19.30
2023-04-10T12:00:27.060Z,19.37
2023-04-10T12:04:28.762Z,18.34
2023-04-10T12:08:31.684Z,18.75
2023-04-10T12:12:37.053Z,18.56
2023-04-10T12:16:38.700Z,18.87
2023-04-10T12:20:40.411Z,19.12
2023-04-10T12:24:48.797Z,19.50
2023-04-10T12:28:55.052Z,20.19
2023-04-10T12:32:57.513Z,20.52
2023-04-10T12:36:59.019Z,19.61
2023-04-10T12:41:01.474Z,18.41
2023-04-10T12:45:03.413Z,19.67
2023-04-10T12:49:16.340Z,20.60
2023-04-10T12:53:18.006Z,19.94
2023-04-10T12:57:28.353Z,18.68
2023-04-10T13:01:29.806Z,18.62
2023-04-10T13:05:31.363Z,19.15
2023-04-10T13:09:32.821Z,19.59
2023-04-10T13:13:34.259Z,19.02
2023-04-10T13:17:35.880Z,19.15
2023-04-10T13:21:37.454Z,19.76
2023-04-10T13:25:40.243Z,19.12
2023-04-10T13:29:42.939Z,19.60
2023-04-10T13:33:48.718Z,20.44
2023-04-10T13:37:53.087Z,20.59
2023-04-10T13:41:54.592Z,19.96
2023-04-10T13:45:56.098Z,20.20
2023-04-10T13:49:57.534Z,20.33
2023-04-10T13:53:59.080Z,20.59
2023-04-10T13:58:00.545Z,19.47
2023-04-10T14:02:02.177Z,20.36
2023-04-10T14:06:03.905Z,19.77
2023-04-10T14:10:06.928Z,19.63
2023-04-10T14:14:08.678Z,19.99
2023-04-10T14:18:10.284Z,19.69
2023-04-10T14:22:12.536Z,19.67
2023-04-10T14:26:14.018Z,20.01
2023-04-10T14:30:15.518Z,20.40
2023-04-10T14:34:17.059Z,20.29
2023-04-10T14:38:18.580Z,20.17
2023-04-10T14:42:20.122Z,20.13
2023-04-10T14:46:21.580Z,19.62
2023-04-10T14:50:23.039Z,18.72
2023-04-10T14:54:24.582Z,19.09
2023-04-10T14:58:26.083Z,18.85
2023-04-10T15:02:28.206Z,18.58
2023-04-10T15:06:32.311Z,17.93
2023-04-10T15:10:33.734Z,17.44
2023-04-10T15:14:35.246Z,17.83
2023-04-10T15:18:36.682Z,18.05
2023-04-10T15:22:38.214Z,18.04
2023-04-10T15:26:46.291Z,18.05
2023-04-10T15:30:49.713Z,17.86
2023-04-10T15:34:51.237Z,17.47
2023-04-10T15:38:52.706Z,17.39
2023-04-10T15:42:54.141Z,17.17
2023-04-10T15:46:55.600Z,17.15
2023-04-10T15:50:57.007Z,16.98
2023-04-10T15:54:58.550Z,17.06
2023-04-10T15:59:00.162Z,17.48
2023-04-10T16:03:01.828Z,17.58
2023-04-10T16:07:03.448Z,17.38
2023-04-10T16:11:05.372Z,17.54
2023-04-10T16:15:08.360Z,18.00
2023-04-10T16:19:10.067Z,17.87
2023-04-10T16:23:11.616Z,18.31
2023-04-10T16:27:13.097Z,18.68
2023-04-10T16:31:14.591Z,18.28
2023-04-10T16:35:18.062Z,18.24
2023-04-10T16:39:19.724Z,17.83
2023-04-10T16:43:23.164Z,17.40
2023-04-10T16:47:25.503Z,17.09
2023-04-10T16:51:27.378Z,17.14
2023-04-10T16:55:28.916Z,16.88
2023-04-10T16:59:30.476Z,16.86
2023-04-10T17:03:33.552Z,16.81
2023-04-10T17:07:35.051Z,16.78
2023-04-10T17:11:36.539Z,16.54
2023-04-10T17:15:38.010Z,16.18
2023-04-10T17:19:39.580Z,16.05
2023-04-10T17:23:41.495Z,15.91
2023-04-10T17:27:42.914Z,15.42
2023-04-10T17:31:44.571Z,15.42
2023-04-10T17:35:46.113Z,15.23
2023-04-10T17:39:47.607Z,15.21
2023-04-10T17:43:49.206Z,15.08
2023-04-10T17:47:50.692Z,14.93
2023-04-10T17:51:52.271Z,14.87
2023-04-10T17:55:53.669Z,14.64
2023-04-10T17:59:55.232Z,14.60
2023-04-10T18:04:02.696Z,14.32
2023-04-10T18:08:04.434Z,14.22
2023-04-10T18:12:05.961Z,14.13
2023-04-10T18:16:08.250Z,14.06
2023-04-10T18:20:10.420Z,13.91
2023-04-10T18:24:12.125Z,13.78
2023-04-10T18:28:15.552Z,13.79
2023-04-10T18:32:17.988Z,13.66
2023-04-10T18:36:21.519Z,13.67
2023-04-10T18:40:23.969Z,13.52
2023-04-10T18:44:25.464Z,13.43
2023-04-10T18:48:27.004Z,13.48
2023-04-10T18:52:28.478Z,13.28
2023-04-10T18:56:30.491Z,13.23
2023-04-10T19:00:33.956Z,13.14
2023-04-10T19:04:35.599Z,13.05
2023-04-10T19:08:37.367Z,13.05
2023-04-10T19:12:40.338Z,13.05
2023-04-10T19:16:41.973Z,12.97
2023-04-10T19:20:49.082Z,12.90
2023-04-10T19:24:54.385Z,12.86
2023-04-10T19:28:56.148Z,12.90
2023-04-10T19:32:57.987Z,12.83
2023-04-10T19:36:59.569Z,12.74
2023-04-10T19:41:01.111Z,12.73
2023-04-10T19:45:04.477Z,12.65
2023-04-10T19:49:06.063Z,12.62
2023-04-10T19:53:07.734Z,12.55
2023-04-10T19:57:09.313Z,12.49
2023-04-10T20:01:11.878Z,12.41
2023-04-10T20:05:13.651Z,12.40
2023-04-10T20:09:16.137Z,12.31
2023-04-10T20:13:17.541Z,12.31
2023-04-10T20:17:19.087Z,12.25
2023-04-10T20:21:21.896Z,12.27
2023-04-10T20:25:23.327Z,12.30
2023-04-10T20:29:24.829Z,12.27
2023-04-10T20:33:26.318Z,12.20
2023-04-10T20:37:27.830Z,12.27
2023-04-10T20:41:29.348Z,12.21
2023-04-10T20:45:31.035Z,12.06
2023-04-10T20:49:32.706Z,12.24
2023-04-10T20:53:34.153Z,12.18
2023-04-10T20:57:35.672Z,12.12
2023-04-10T21:01:37.343Z,12.14
2023-04-10T21:05:41.423Z,12.09
2023-04-10T21:09:42.977Z,12.04
2023-04-10T21:13:44.394Z,12.01
2023-04-10T21:17:45.844Z,12.04
2023-04-10T21:21:47.313Z,11.89
2023-04-10T21:25:52.655Z,12.00
2023-04-10T21:29:54.106Z,11.83
2023-04-10T21:33:55.637Z,11.80
2023-04-10T21:38:01.805Z,11.74
2023-04-10T21:42:03.614Z,11.79
2023-04-10T21:46:06.110Z,11.75
2023-04-10T21:50:08.121Z,11.75
2023-04-10T21:54:09.561Z,11.64
2023-04-10T21:58:11.029Z,11.70
2023-04-10T22:02:13.145Z,11.64
2023-04-10T22:06:14.865Z,11.61
2023-04-10T22:10:16.490Z,11.61
2023-04-10T22:14:20.080Z,11.55
2023-04-10T22:18:22.853Z,11.61
2023-04-10T22:22:24.383Z,11.58
2023-04-10T22:26:26.057Z,11.63
2023-04-10T22:30:27.590Z,11.59
2023-04-10T22:34:29.035Z,11.57
2023-04-10T22:38:30.790Z,11.48
2023-04-10T22:42:32.207Z,11.50
2023-04-10T22:46:33.993Z,11.46
2023-04-10T22:50:35.506Z,11.40
2023-04-10T22:54:36.969Z,11.30
2023-04-10T22:58:39.705Z,11.22
2023-04-10T23:02:41.341Z,11.21
2023-04-10T23:06:42.894Z,11.08
2023-04-10T23:10:44.346Z,11.08
2023-04-10T23:14:45.786Z,11.07
2023-04-10T23:18:47.177Z,11.07
2023-04-10T23:22:48.650Z,11.00
2023-04-10T23:26:50.132Z,11.03
2023-04-10T23:30:51.629Z,11.02
2023-04-10T23:34:53.056Z,10.99
2023-04-10T23:38:55.019Z,10.82
2023-04-10T23:42:56.767Z,10.96
2023-04-10T23:46:58.258Z,10.85
2023-04-10T23:51:04.561Z,10.93
2023-04-10T23:55:06.404Z,10.82
2023-04-10T23:59:07.881Z,10.84
